sensor_id;sensor_type;location;lat;lon;timestamp;P1;durP1;ratioP1;P2;durP2;ratioP2
44272;SDS011;29964;17.182;-96.766;2023-02-03T00:00:55;4.85;;;1.98;;
44272;SDS011;29964;17.182;-96.766;2023-02-03T00:03:21;5.03;;;2.35;;
44272;SDS011;29964;17.182;-96.766;2023-02-03T00:05:48;2.97;;;2.08;;
44272;SDS011;29964;17.182;-96.766;2023-02-03T00:08:15;3.42;;;2.17;;
44272;SDS011;29964;17.182;-96.766;2023-02-03T00:10:43;4.13;;;2.20;;
44272;SDS011;29964;17.182;-96.766;2023-02-03T00:13:09;3.63;;;2.20;;
44272;SDS011;29964;17.182;-96.766;2023-02-03T00:15:36;5.73;;;2.23;;
44272;SDS011;29964;17.182;-96.766;2023-02-03T00:18:03;5.00;;;1.57;;
44272;SDS011;29964;17.182;-96.766;2023-02-03T00:20:31;2.73;;;1.83;;
44272;SDS011;29964;17.182;-96.766;2023-02-03T00:23:08;2.43;;;2.00;;
44272;SDS011;29964;17.182;-96.766;2023-02-03T00:25:35;4.57;;;2.67;;
44272;SDS011;29964;17.182;-96.766;2023-02-03T00:28:02;5.10;;;2.30;;
44272;SDS011;29964;17.182;-96.766;2023-02-03T00:30:30;3.47;;;1.77;;
44272;SDS011;29964;17.182;-96.766;2023-02-03T00:32:57;2.07;;;1.60;;
44272;SDS011;29964;17.182;-96.766;2023-02-03T00:35:23;4.03;;;2.57;;
44272;SDS011;29964;17.182;-96.766;2023-02-03T00:37:51;3.53;;;1.70;;
44272;SDS011;29964;17.182;-96.766;2023-02-03T00:40:18;4.43;;;1.70;;
44272;SDS011;29964;17.182;-96.766;2023-02-03T00:42:45;4.20;;;1.83;;
44272;SDS011;29964;17.182;-96.766;2023-02-03T00:45:11;2.37;;;1.50;;
44272;SDS011;29964;17.182;-96.766;2023-02-03T00:47:38;6.83;;;2.47;;
44272;SDS011;29964;17.182;-96.766;2023-02-03T00:50:05;4.93;;;2.03;;
44272;SDS011;29964;17.182;-96.766;2023-02-03T00:52:32;6.37;;;3.10;;
44272;SDS011;29964;17.182;-96.766;2023-02-03T00:54:59;4.33;;;2.60;;
44272;SDS011;29964;17.182;-96.766;2023-02-03T00:57:26;3.83;;;1.93;;
44272;SDS011;29964;17.182;-96.766;2023-02-03T00:59:52;4.73;;;2.63;;
44272;SDS011;29964;17.182;-96.766;2023-02-03T01:02:21;5.03;;;2.60;;
44272;SDS011;29964;17.182;-96.766;2023-02-03T01:04:48;3.37;;;2.10;;
44272;SDS011;29964;17.182;-96.766;2023-02-03T01:07:14;5.07;;;2.47;;
44272;SDS011;29964;17.182;-96.766;2023-02-03T01:09:41;3.80;;;2.23;;
44272;SDS011;29964;17.182;-96.766;2023-02-03T01:12:08;3.97;;;2.23;;
44272;SDS011;29964;17.182;-96.766;2023-02-03T01:14:35;2.17;;;1.60;;
44272;SDS011;29964;17.182;-96.766;2023-02-03T01:17:01;3.20;;;2.27;;
44272;SDS011;29964;17.182;-96.766;2023-02-03T01:19:28;2.87;;;1.47;;
44272;SDS011;29964;17.182;-96.766;2023-02-03T01:21:54;2.63;;;1.93;;
44272;SDS011;29964;17.182;-96.766;2023-02-03T01:24:21;3.13;;;2.07;;
44272;SDS011;29964;17.182;-96.766;2023-02-03T01:26:48;3.40;;;1.70;;
44272;SDS011;29964;17.182;-96.766;2023-02-03T01:29:15;2.90;;;1.57;;
44272;SDS011;29964;17.182;-96.766;2023-02-03T01:31:41;12.37;;;2.63;;
44272;SDS011;29964;17.182;-96.766;2023-02-03T01:34:12;4.57;;;2.27;;
44272;SDS011;29964;17.182;-96.766;2023-02-03T01:36:42;6.15;;;2.67;;
44272;SDS011;29964;17.182;-96.766;2023-02-03T01:39:11;3.67;;;2.73;;
44272;SDS011;29964;17.182;-96.766;2023-02-03T01:41:38;9.53;;;2.37;;
44272;SDS011;29964;17.182;-96.766;2023-02-03T01:46:49;3.45;;;2.28;;
44272;SDS011;29964;17.182;-96.766;2023-02-03T01:49:21;3.50;;;1.90;;
44272;SDS011;29964;17.182;-96.766;2023-02-03T01:52:04;7.30;;;2.83;;
44272;SDS011;29964;17.182;-96.766;2023-02-03T01:54:38;2.50;;;1.80;;
44272;SDS011;29964;17.182;-96.766;2023-02-03T01:57:09;4.37;;;2.50;;
44272;SDS011;29964;17.182;-96.766;2023-02-03T01:59:38;4.63;;;1.97;;
44272;SDS011;29964;17.182;-96.766;2023-02-03T02:02:05;5.70;;;2.63;;
44272;SDS011;29964;17.182;-96.766;2023-02-03T02:04:46;3.37;;;1.73;;
44272;SDS011;29964;17.182;-96.766;2023-02-03T02:07:16;2.57;;;2.00;;
44272;SDS011;29964;17.182;-96.766;2023-02-03T02:09:43;3.20;;;2.50;;
44272;SDS011;29964;17.182;-96.766;2023-02-03T02:12:32;3.53;;;2.80;;
44272;SDS011;29964;17.182;-96.766;2023-02-03T02:14:58;5.37;;;2.80;;
44272;SDS011;29964;17.182;-96.766;2023-02-03T02:28:06;2.03;;;1.60;;
44272;SDS011;29964;17.182;-96.766;2023-02-03T02:33:12;5.83;;;2.40;;
44272;SDS011;29964;17.182;-96.766;2023-02-03T02:35:46;19.43;;;4.23;;
44272;SDS011;29964;17.182;-96.766;2023-02-03T02:41:03;10.60;;;3.23;;
44272;SDS011;29964;17.182;-96.766;2023-02-03T02:46:10;3.43;;;2.13;;
44272;SDS011;29964;17.182;-96.766;2023-02-03T02:48:52;3.10;;;2.20;;
44272;SDS011;29964;17.182;-96.766;2023-02-03T02:51:20;3.77;;;2.43;;
44272;SDS011;29964;17.182;-96.766;2023-02-03T02:53:52;4.17;;;2.80;;
44272;SDS011;29964;17.182;-96.766;2023-02-03T02:56:19;6.60;;;2.77;;
44272;SDS011;29964;17.182;-96.766;2023-02-03T02:58:49;5.20;;;3.07;;
44272;SDS011;29964;17.182;-96.766;2023-02-03T03:01:21;4.27;;;2.03;;
44272;SDS011;29964;17.182;-96.766;2023-02-03T03:03:47;48.47;;;5.87;;
44272;SDS011;29964;17.182;-96.766;2023-02-03T03:06:18;20.57;;;2.20;;
44272;SDS011;29964;17.182;-96.766;2023-02-03T03:08:51;10.90;;;3.73;;
44272;SDS011;29964;17.182;-96.766;2023-02-03T03:11:37;7.53;;;2.43;;
44272;SDS011;29964;17.182;-96.766;2023-02-03T03:14:07;6.83;;;4.10;;
44272;SDS011;29964;17.182;-96.766;2023-02-03T03:16:36;3.77;;;2.67;;
44272;SDS011;29964;17.182;-96.766;2023-02-03T03:19:07;10.37;;;3.57;;
44272;SDS011;29964;17.182;-96.766;2023-02-03T03:21:46;4.87;;;2.50;;
44272;SDS011;29964;17.182;-96.766;2023-02-03T03:24:15;2.93;;;2.30;;
44272;SDS011;29964;17.182;-96.766;2023-02-03T03:26:55;2.97;;;1.77;;
44272;SDS011;29964;17.182;-96.766;2023-02-03T03:29:29;4.73;;;2.43;;
44272;SDS011;29964;17.182;-96.766;2023-02-03T03:31:59;3.37;;;2.33;;
44272;SDS011;29964;17.182;-96.766;2023-02-03T03:34:26;3.37;;;2.10;;
44272;SDS011;29964;17.182;-96.766;2023-02-03T03:36:56;9.13;;;2.77;;
44272;SDS011;29964;17.182;-96.766;2023-02-03T03:39:28;7.03;;;2.43;;
44272;SDS011;29964;17.182;-96.766;2023-02-03T03:44:56;3.93;;;2.03;;
44272;SDS011;29964;17.182;-96.766;2023-02-03T03:47:25;13.13;;;4.27;;
44272;SDS011;29964;17.182;-96.766;2023-02-03T03:49:53;1.97;;;1.67;;
44272;SDS011;29964;17.182;-96.766;2023-02-03T03:52:22;5.77;;;2.57;;
44272;SDS011;29964;17.182;-96.766;2023-02-03T03:54:51;4.93;;;2.40;;
44272;SDS011;29964;17.182;-96.766;2023-02-03T03:57:24;3.63;;;1.90;;
44272;SDS011;29964;17.182;-96.766;2023-02-03T03:59:52;3.97;;;2.30;;
44272;SDS011;29964;17.182;-96.766;2023-02-03T04:02:19;8.33;;;3.30;;
44272;SDS011;29964;17.182;-96.766;2023-02-03T04:04:46;4.63;;;2.77;;
44272;SDS011;29964;17.182;-96.766;2023-02-03T04:07:13;11.93;;;3.70;;
44272;SDS011;29964;17.182;-96.766;2023-02-03T04:09:40;4.17;;;2.57;;
44272;SDS011;29964;17.182;-96.766;2023-02-03T04:12:12;11.10;;;2.60;;
44272;SDS011;29964;17.182;-96.766;2023-02-03T04:14:41;12.48;;;3.72;;
44272;SDS011;29964;17.182;-96.766;2023-02-03T04:17:08;8.50;;;3.73;;
44272;SDS011;29964;17.182;-96.766;2023-02-03T04:19:35;13.00;;;3.70;;
44272;SDS011;29964;17.182;-96.766;2023-02-03T04:22:01;3.77;;;2.80;;
44272;SDS011;29964;17.182;-96.766;2023-02-03T04:24:28;23.17;;;4.43;;
44272;SDS011;29964;17.182;-96.766;2023-02-03T04:26:55;7.83;;;3.37;;
44272;SDS011;29964;17.182;-96.766;2023-02-03T04:29:23;30.27;;;2.57;;
44272;SDS011;29964;17.182;-96.766;2023-02-03T04:31:50;15.30;;;2.90;;
44272;SDS011;29964;17.182;-96.766;2023-02-03T04:34:17;4.27;;;2.30;;
44272;SDS011;29964;17.182;-96.766;2023-02-03T04:36:43;10.70;;;2.87;;
44272;SDS011;29964;17.182;-96.766;2023-02-03T04:39:10;8.87;;;2.70;;
44272;SDS011;29964;17.182;-96.766;2023-02-03T04:41:37;2.97;;;1.90;;
44272;SDS011;29964;17.182;-96.766;2023-02-03T04:44:03;3.93;;;2.23;;
44272;SDS011;29964;17.182;-96.766;2023-02-03T04:46:30;2.07;;;1.80;;
44272;SDS011;29964;17.182;-96.766;2023-02-03T04:48:57;8.10;;;2.33;;
44272;SDS011;29964;17.182;-96.766;2023-02-03T04:51:23;43.20;;;3.70;;
44272;SDS011;29964;17.182;-96.766;2023-02-03T04:53:50;5.93;;;4.40;;
44272;SDS011;29964;17.182;-96.766;2023-02-03T04:56:17;13.43;;;3.90;;
44272;SDS011;29964;17.182;-96.766;2023-02-03T04:58:43;4.70;;;3.37;;
44272;SDS011;29964;17.182;-96.766;2023-02-03T05:01:10;3.27;;;2.13;;
44272;SDS011;29964;17.182;-96.766;2023-02-03T05:03:56;5.10;;;3.20;;
44272;SDS011;29964;17.182;-96.766;2023-02-03T05:06:24;13.43;;;4.00;;
44272;SDS011;29964;17.182;-96.766;2023-02-03T05:08:51;5.73;;;2.97;;
44272;SDS011;29964;17.182;-96.766;2023-02-03T05:11:18;7.23;;;3.17;;
44272;SDS011;29964;17.182;-96.766;2023-02-03T05:13:44;1.70;;;1.53;;
44272;SDS011;29964;17.182;-96.766;2023-02-03T05:16:11;3.83;;;2.07;;
44272;SDS011;29964;17.182;-96.766;2023-02-03T05:18:58;7.40;;;2.30;;
44272;SDS011;29964;17.182;-96.766;2023-02-03T05:21:24;4.97;;;3.10;;
44272;SDS011;29964;17.182;-96.766;2023-02-03T05:23:51;3.77;;;2.50;;
44272;SDS011;29964;17.182;-96.766;2023-02-03T05:26:18;4.40;;;2.80;;
44272;SDS011;29964;17.182;-96.766;2023-02-03T05:28:44;3.40;;;2.23;;
44272;SDS011;29964;17.182;-96.766;2023-02-03T05:31:11;4.43;;;3.00;;
44272;SDS011;29964;17.182;-96.766;2023-02-03T05:33:38;4.67;;;3.43;;
44272;SDS011;29964;17.182;-96.766;2023-02-03T05:36:04;9.57;;;3.17;;
44272;SDS011;29964;17.182;-96.766;2023-02-03T05:38:31;7.10;;;4.30;;
44272;SDS011;29964;17.182;-96.766;2023-02-03T05:40:58;4.30;;;3.20;;
44272;SDS011;29964;17.182;-96.766;2023-02-03T05:43:43;3.72;;;2.63;;
44272;SDS011;29964;17.182;-96.766;2023-02-03T05:46:09;6.80;;;2.77;;
44272;SDS011;29964;17.182;-96.766;2023-02-03T05:48:36;5.10;;;2.97;;
44272;SDS011;29964;17.182;-96.766;2023-02-03T05:51:03;16.03;;;4.03;;
44272;SDS011;29964;17.182;-96.766;2023-02-03T05:53:30;8.37;;;3.33;;
44272;SDS011;29964;17.182;-96.766;2023-02-03T05:55:56;4.27;;;3.00;;
44272;SDS011;29964;17.182;-96.766;2023-02-03T05:58:53;4.40;;;2.93;;
44272;SDS011;29964;17.182;-96.766;2023-02-03T06:01:20;4.63;;;3.30;;
44272;SDS011;29964;17.182;-96.766;2023-02-03T06:03:47;3.40;;;2.23;;
44272;SDS011;29964;17.182;-96.766;2023-02-03T06:06:14;3.70;;;2.90;;
44272;SDS011;29964;17.182;-96.766;2023-02-03T06:08:41;3.37;;;2.57;;
44272;SDS011;29964;17.182;-96.766;2023-02-03T06:11:08;4.17;;;3.60;;
44272;SDS011;29964;17.182;-96.766;2023-02-03T06:13:34;13.83;;;3.33;;
44272;SDS011;29964;17.182;-96.766;2023-02-03T06:16:23;5.07;;;2.97;;
44272;SDS011;29964;17.182;-96.766;2023-02-03T06:18:50;4.17;;;2.50;;
44272;SDS011;29964;17.182;-96.766;2023-02-03T06:21:17;4.57;;;2.80;;
44272;SDS011;29964;17.182;-96.766;2023-02-03T06:23:44;4.73;;;2.70;;
44272;SDS011;29964;17.182;-96.766;2023-02-03T06:26:10;3.50;;;2.60;;
44272;SDS011;29964;17.182;-96.766;2023-02-03T06:28:37;5.27;;;3.20;;
44272;SDS011;29964;17.182;-96.766;2023-02-03T06:31:04;5.23;;;2.77;;
44272;SDS011;29964;17.182;-96.766;2023-02-03T06:33:31;8.07;;;2.63;;
44272;SDS011;29964;17.182;-96.766;2023-02-03T06:35:57;4.90;;;2.87;;
44272;SDS011;29964;17.182;-96.766;2023-02-03T06:38:24;2.87;;;2.33;;
44272;SDS011;29964;17.182;-96.766;2023-02-03T06:40:51;5.07;;;2.93;;
44272;SDS011;29964;17.182;-96.766;2023-02-03T06:43:17;5.07;;;3.07;;
44272;SDS011;29964;17.182;-96.766;2023-02-03T06:45:44;2.37;;;1.90;;
44272;SDS011;29964;17.182;-96.766;2023-02-03T06:48:11;22.53;;;2.43;;
44272;SDS011;29964;17.182;-96.766;2023-02-03T06:50:38;3.00;;;2.70;;
44272;SDS011;29964;17.182;-96.766;2023-02-03T06:53:05;6.27;;;2.67;;
44272;SDS011;29964;17.182;-96.766;2023-02-03T06:55:31;6.87;;;3.57;;
44272;SDS011;29964;17.182;-96.766;2023-02-03T06:57:58;6.47;;;3.90;;
44272;SDS011;29964;17.182;-96.766;2023-02-03T07:00:25;3.27;;;2.37;;
44272;SDS011;29964;17.182;-96.766;2023-02-03T07:02:52;4.77;;;3.17;;
44272;SDS011;29964;17.182;-96.766;2023-02-03T07:05:20;4.07;;;3.57;;
44272;SDS011;29964;17.182;-96.766;2023-02-03T07:07:46;4.00;;;3.10;;
44272;SDS011;29964;17.182;-96.766;2023-02-03T07:10:13;2.47;;;1.73;;
44272;SDS011;29964;17.182;-96.766;2023-02-03T07:12:40;4.20;;;2.87;;
44272;SDS011;29964;17.182;-96.766;2023-02-03T07:15:07;4.43;;;2.93;;
44272;SDS011;29964;17.182;-96.766;2023-02-03T07:17:34;4.03;;;2.40;;
44272;SDS011;29964;17.182;-96.766;2023-02-03T07:20:00;1.87;;;1.67;;
44272;SDS011;29964;17.182;-96.766;2023-02-03T07:22:27;3.87;;;2.83;;
44272;SDS011;29964;17.182;-96.766;2023-02-03T07:24:54;11.67;;;2.40;;
44272;SDS011;29964;17.182;-96.766;2023-02-03T07:27:20;2.83;;;2.30;;
44272;SDS011;29964;17.182;-96.766;2023-02-03T07:29:47;3.83;;;2.77;;
44272;SDS011;29964;17.182;-96.766;2023-02-03T07:32:14;4.43;;;2.53;;
44272;SDS011;29964;17.182;-96.766;2023-02-03T07:34:40;3.13;;;2.50;;
44272;SDS011;29964;17.182;-96.766;2023-02-03T07:37:07;3.17;;;2.53;;
44272;SDS011;29964;17.182;-96.766;2023-02-03T07:39:34;2.60;;;2.37;;
44272;SDS011;29964;17.182;-96.766;2023-02-03T07:42:00;2.67;;;2.03;;
44272;SDS011;29964;17.182;-96.766;2023-02-03T07:44:27;3.67;;;2.70;;
44272;SDS011;29964;17.182;-96.766;2023-02-03T07:46:54;12.90;;;2.47;;
44272;SDS011;29964;17.182;-96.766;2023-02-03T07:49:20;4.57;;;3.10;;
44272;SDS011;29964;17.182;-96.766;2023-02-03T07:51:47;4.73;;;3.47;;
44272;SDS011;29964;17.182;-96.766;2023-02-03T07:54:14;4.50;;;2.47;;
44272;SDS011;29964;17.182;-96.766;2023-02-03T07:56:41;3.17;;;2.37;;
44272;SDS011;29964;17.182;-96.766;2023-02-03T07:59:08;5.40;;;3.80;;
44272;SDS011;29964;17.182;-96.766;2023-02-03T08:01:34;3.63;;;2.97;;
44272;SDS011;29964;17.182;-96.766;2023-02-03T08:04:01;4.10;;;3.30;;
44272;SDS011;29964;17.182;-96.766;2023-02-03T08:06:30;3.87;;;2.87;;
44272;SDS011;29964;17.182;-96.766;2023-02-03T08:08:56;3.67;;;2.53;;
44272;SDS011;29964;17.182;-96.766;2023-02-03T08:11:23;2.97;;;2.63;;
44272;SDS011;29964;17.182;-96.766;2023-02-03T08:13:50;5.17;;;3.07;;
44272;SDS011;29964;17.182;-96.766;2023-02-03T08:16:16;4.40;;;3.13;;
44272;SDS011;29964;17.182;-96.766;2023-02-03T08:18:43;3.83;;;3.00;;
44272;SDS011;29964;17.182;-96.766;2023-02-03T08:21:10;3.97;;;2.90;;
44272;SDS011;29964;17.182;-96.766;2023-02-03T08:23:37;6.60;;;3.77;;
44272;SDS011;29964;17.182;-96.766;2023-02-03T08:26:03;4.13;;;2.83;;
44272;SDS011;29964;17.182;-96.766;2023-02-03T08:28:30;2.70;;;2.23;;
44272;SDS011;29964;17.182;-96.766;2023-02-03T08:30:57;5.23;;;3.20;;
44272;SDS011;29964;17.182;-96.766;2023-02-03T08:33:24;4.10;;;3.03;;
44272;SDS011;29964;17.182;-96.766;2023-02-03T08:35:50;4.83;;;3.33;;
44272;SDS011;29964;17.182;-96.766;2023-02-03T08:38:17;6.17;;;3.63;;
44272;SDS011;29964;17.182;-96.766;2023-02-03T08:40:46;4.60;;;3.00;;
44272;SDS011;29964;17.182;-96.766;2023-02-03T08:43:12;2.43;;;2.17;;
44272;SDS011;29964;17.182;-96.766;2023-02-03T08:45:39;2.60;;;2.23;;
44272;SDS011;29964;17.182;-96.766;2023-02-03T08:48:06;6.27;;;2.97;;
44272;SDS011;29964;17.182;-96.766;2023-02-03T08:50:33;4.83;;;3.83;;
44272;SDS011;29964;17.182;-96.766;2023-02-03T08:52:59;2.47;;;1.93;;
44272;SDS011;29964;17.182;-96.766;2023-02-03T08:55:26;1.73;;;1.50;;
44272;SDS011;29964;17.182;-96.766;2023-02-03T08:57:53;4.97;;;3.97;;
44272;SDS011;29964;17.182;-96.766;2023-02-03T09:00:20;17.23;;;3.63;;
44272;SDS011;29964;17.182;-96.766;2023-02-03T09:02:47;3.07;;;2.63;;
44272;SDS011;29964;17.182;-96.766;2023-02-03T09:05:13;2.77;;;2.27;;
44272;SDS011;29964;17.182;-96.766;2023-02-03T09:07:42;7.17;;;3.87;;
44272;SDS011;29964;17.182;-96.766;2023-02-03T09:10:09;3.60;;;2.77;;
44272;SDS011;29964;17.182;-96.766;2023-02-03T09:12:36;5.47;;;3.03;;
44272;SDS011;29964;17.182;-96.766;2023-02-03T09:15:03;3.40;;;2.83;;
44272;SDS011;29964;17.182;-96.766;2023-02-03T09:17:29;5.00;;;3.20;;
44272;SDS011;29964;17.182;-96.766;2023-02-03T09:19:56;3.73;;;3.07;;
44272;SDS011;29964;17.182;-96.766;2023-02-03T09:22:23;3.40;;;2.53;;
44272;SDS011;29964;17.182;-96.766;2023-02-03T09:24:49;10.10;;;3.30;;
44272;SDS011;29964;17.182;-96.766;2023-02-03T09:27:16;4.10;;;3.27;;
44272;SDS011;29964;17.182;-96.766;2023-02-03T09:29:43;3.80;;;2.40;;
44272;SDS011;29964;17.182;-96.766;2023-02-03T09:32:09;2.67;;;2.10;;
44272;SDS011;29964;17.182;-96.766;2023-02-03T09:34:36;4.73;;;3.30;;
44272;SDS011;29964;17.182;-96.766;2023-02-03T09:37:06;3.57;;;2.63;;
44272;SDS011;29964;17.182;-96.766;2023-02-03T09:39:32;2.93;;;2.63;;
44272;SDS011;29964;17.182;-96.766;2023-02-03T09:42:12;4.10;;;2.63;;
44272;SDS011;29964;17.182;-96.766;2023-02-03T09:47:15;3.33;;;2.60;;
44272;SDS011;29964;17.182;-96.766;2023-02-03T09:50:17;3.87;;;3.00;;
44272;SDS011;29964;17.182;-96.766;2023-02-03T09:52:38;4.50;;;3.13;;
44272;SDS011;29964;17.182;-96.766;2023-02-03T09:57:49;3.93;;;3.07;;
44272;SDS011;29964;17.182;-96.766;2023-02-03T10:00:29;3.50;;;2.23;;
44272;SDS011;29964;17.182;-96.766;2023-02-03T10:16:11;3.87;;;2.97;;
44272;SDS011;29964;17.182;-96.766;2023-02-03T10:18:52;3.80;;;2.87;;
44272;SDS011;29964;17.182;-96.766;2023-02-03T10:21:36;7.03;;;3.07;;
44272;SDS011;29964;17.182;-96.766;2023-02-03T10:24:18;4.60;;;3.20;;
44272;SDS011;29964;17.182;-96.766;2023-02-03T10:26:45;5.03;;;3.43;;
44272;SDS011;29964;17.182;-96.766;2023-02-03T10:31:42;4.50;;;3.33;;
44272;SDS011;29964;17.182;-96.766;2023-02-03T10:34:15;3.77;;;3.23;;
44272;SDS011;29964;17.182;-96.766;2023-02-03T10:36:55;4.07;;;3.10;;
44272;SDS011;29964;17.182;-96.766;2023-02-03T10:39:25;2.77;;;2.47;;
44272;SDS011;29964;17.182;-96.766;2023-02-03T10:41:53;4.80;;;3.27;;
44272;SDS011;29964;17.182;-96.766;2023-02-03T10:44:20;3.10;;;2.23;;
44272;SDS011;29964;17.182;-96.766;2023-02-03T10:46:51;2.80;;;2.27;;
44272;SDS011;29964;17.182;-96.766;2023-02-03T10:49:17;3.37;;;2.87;;
44272;SDS011;29964;17.182;-96.766;2023-02-03T10:51:49;3.37;;;2.73;;
44272;SDS011;29964;17.182;-96.766;2023-02-03T10:54:32;3.70;;;3.27;;
44272;SDS011;29964;17.182;-96.766;2023-02-03T10:57:03;3.17;;;2.40;;
44272;SDS011;29964;17.182;-96.766;2023-02-03T10:59:33;4.10;;;2.80;;
44272;SDS011;29964;17.182;-96.766;2023-02-03T11:02:06;3.30;;;2.53;;
44272;SDS011;29964;17.182;-96.766;2023-02-03T11:04:33;5.57;;;2.67;;
44272;SDS011;29964;17.182;-96.766;2023-02-03T11:07:01;3.17;;;2.57;;
44272;SDS011;29964;17.182;-96.766;2023-02-03T11:12:06;2.80;;;2.50;;
44272;SDS011;29964;17.182;-96.766;2023-02-03T11:14:35;12.93;;;2.78;;
44272;SDS011;29964;17.182;-96.766;2023-02-03T11:17:06;7.00;;;3.30;;
44272;SDS011;29964;17.182;-96.766;2023-02-03T11:19:33;2.63;;;2.17;;
44272;SDS011;29964;17.182;-96.766;2023-02-03T11:22:01;4.63;;;2.47;;
44272;SDS011;29964;17.182;-96.766;2023-02-03T11:24:31;2.80;;;2.27;;
44272;SDS011;29964;17.182;-96.766;2023-02-03T11:29:29;4.27;;;3.00;;
44272;SDS011;29964;17.182;-96.766;2023-02-03T11:31:57;2.20;;;1.67;;
44272;SDS011;29964;17.182;-96.766;2023-02-03T11:34:26;5.23;;;2.90;;
44272;SDS011;29964;17.182;-96.766;2023-02-03T11:36:54;2.63;;;1.83;;
44272;SDS011;29964;17.182;-96.766;2023-02-03T11:39:26;4.97;;;1.90;;
44272;SDS011;29964;17.182;-96.766;2023-02-03T11:41:53;2.03;;;1.50;;
44272;SDS011;29964;17.182;-96.766;2023-02-03T11:44:24;1.90;;;1.70;;
44272;SDS011;29964;17.182;-96.766;2023-02-03T11:52:21;3.17;;;2.00;;
44272;SDS011;29964;17.182;-96.766;2023-02-03T12:07:48;1.30;;;1.10;;
44272;SDS011;29964;17.182;-96.766;2023-02-03T12:10:37;1.53;;;0.97;;
44272;SDS011;29964;17.182;-96.766;2023-02-03T12:20:53;1.07;;;0.83;;
44272;SDS011;29964;17.182;-96.766;2023-02-03T12:24:09;1.17;;;1.07;;
44272;SDS011;29964;17.182;-96.766;2023-02-03T12:26:22;0.97;;;0.87;;
44272;SDS011;29964;17.182;-96.766;2023-02-03T12:29:32;2.57;;;1.97;;
44272;SDS011;29964;17.182;-96.766;2023-02-03T12:39:37;1.67;;;1.17;;
44272;SDS011;29964;17.182;-96.766;2023-02-03T12:42:13;2.08;;;1.52;;
44272;SDS011;29964;17.182;-96.766;2023-02-03T12:44:43;3.50;;;1.33;;
44272;SDS011;29964;17.182;-96.766;2023-02-03T12:49:43;1.60;;;0.60;;
44272;SDS011;29964;17.182;-96.766;2023-02-03T12:52:22;0.80;;;0.60;;
44272;SDS011;29964;17.182;-96.766;2023-02-03T12:58:01;6.50;;;1.17;;
44272;SDS011;29964;17.182;-96.766;2023-02-03T13:03:01;1.85;;;1.35;;
44272;SDS011;29964;17.182;-96.766;2023-02-03T13:05:42;1.53;;;1.20;;
44272;SDS011;29964;17.182;-96.766;2023-02-03T13:10:42;2.03;;;1.30;;
44272;SDS011;29964;17.182;-96.766;2023-02-03T13:13:13;1.03;;;0.93;;
44272;SDS011;29964;17.182;-96.766;2023-02-03T13:15:44;2.50;;;1.37;;
44272;SDS011;29964;17.182;-96.766;2023-02-03T13:20:44;1.27;;;1.17;;
44272;SDS011;29964;17.182;-96.766;2023-02-03T13:23:12;1.47;;;1.37;;
44272;SDS011;29964;17.182;-96.766;2023-02-03T13:31:10;2.67;;;1.20;;
44272;SDS011;29964;17.182;-96.766;2023-02-03T13:38:57;1.97;;;1.67;;
44272;SDS011;29964;17.182;-96.766;2023-02-03T13:44:12;4.30;;;2.63;;
44272;SDS011;29964;17.182;-96.766;2023-02-03T13:46:41;17.80;;;3.13;;
44272;SDS011;29964;17.182;-96.766;2023-02-03T13:49:08;3.87;;;1.83;;
44272;SDS011;29964;17.182;-96.766;2023-02-03T13:51:36;2.10;;;1.40;;
44272;SDS011;29964;17.182;-96.766;2023-02-03T13:54:12;2.30;;;1.40;;
44272;SDS011;29964;17.182;-96.766;2023-02-03T13:56:40;1.80;;;1.40;;
44272;SDS011;29964;17.182;-96.766;2023-02-03T14:01:41;6.53;;;1.20;;
44272;SDS011;29964;17.182;-96.766;2023-02-03T14:09:20;1.47;;;0.87;;
44272;SDS011;29964;17.182;-96.766;2023-02-03T14:11:51;0.50;;;0.50;;
44272;SDS011;29964;17.182;-96.766;2023-02-03T14:16:48;1.20;;;0.80;;
44272;SDS011;29964;17.182;-96.766;2023-02-03T14:24:20;2.63;;;1.13;;
44272;SDS011;29964;17.182;-96.766;2023-02-03T14:26:48;0.30;;;0.30;;
44272;SDS011;29964;17.182;-96.766;2023-02-03T14:31:59;1.73;;;0.93;;
44272;SDS011;29964;17.182;-96.766;2023-02-03T14:34:28;0.90;;;0.68;;
44272;SDS011;29964;17.182;-96.766;2023-02-03T14:36:55;2.10;;;0.60;;
44272;SDS011;29964;17.182;-96.766;2023-02-03T14:57:43;2.13;;;0.60;;
44272;SDS011;29964;17.182;-96.766;2023-02-03T15:05:38;0.57;;;0.47;;
44272;SDS011;29964;17.182;-96.766;2023-02-03T15:10:50;0.13;;;0.10;;
44272;SDS011;29964;17.182;-96.766;2023-02-03T15:13:27;1.10;;;0.67;;
44272;SDS011;29964;17.182;-96.766;2023-02-03T15:16:00;0.60;;;0.40;;
44272;SDS011;29964;17.182;-96.766;2023-02-03T15:18:34;0.00;;;0.00;;
44272;SDS011;29964;17.182;-96.766;2023-02-03T15:21:01;0.63;;;0.33;;
44272;SDS011;29964;17.182;-96.766;2023-02-03T15:23:29;0.10;;;0.10;;
44272;SDS011;29964;17.182;-96.766;2023-02-03T15:26:00;0.37;;;0.20;;
44272;SDS011;29964;17.182;-96.766;2023-02-03T15:28:28;0.37;;;0.20;;
44272;SDS011;29964;17.182;-96.766;2023-02-03T15:31:05;0.00;;;0.00;;
44272;SDS011;29964;17.182;-96.766;2023-02-03T15:33:37;1.37;;;0.60;;
44272;SDS011;29964;17.182;-96.766;2023-02-03T15:36:12;0.93;;;0.50;;
44272;SDS011;29964;17.182;-96.766;2023-02-03T15:38:43;7.83;;;0.73;;
44272;SDS011;29964;17.182;-96.766;2023-02-03T15:41:21;1.27;;;0.50;;
44272;SDS011;29964;17.182;-96.766;2023-02-03T15:43:50;0.30;;;0.20;;
44272;SDS011;29964;17.182;-96.766;2023-02-03T15:46:26;0.63;;;0.47;;
44272;SDS011;29964;17.182;-96.766;2023-02-03T15:49:01;0.30;;;0.20;;
44272;SDS011;29964;17.182;-96.766;2023-02-03T15:51:42;0.00;;;0.00;;
44272;SDS011;29964;17.182;-96.766;2023-02-03T16:01:48;0.50;;;0.30;;
44272;SDS011;29964;17.182;-96.766;2023-02-03T16:04:15;0.23;;;0.20;;
44272;SDS011;29964;17.182;-96.766;2023-02-03T16:06:43;0.20;;;0.10;;
44272;SDS011;29964;17.182;-96.766;2023-02-03T16:14:33;1.20;;;0.30;;
44272;SDS011;29964;17.182;-96.766;2023-02-03T16:17:00;3.40;;;0.37;;
44272;SDS011;29964;17.182;-96.766;2023-02-03T16:19:28;0.13;;;0.10;;
44272;SDS011;29964;17.182;-96.766;2023-02-03T16:21:57;0.00;;;0.00;;
44272;SDS011;29964;17.182;-96.766;2023-02-03T16:24:37;0.23;;;0.17;;
44272;SDS011;29964;17.182;-96.766;2023-02-03T16:29:47;0.10;;;0.00;;
44272;SDS011;29964;17.182;-96.766;2023-02-03T16:32:32;1.88;;;0.30;;
44272;SDS011;29964;17.182;-96.766;2023-02-03T16:35:17;1.92;;;0.35;;
44272;SDS011;29964;17.182;-96.766;2023-02-03T16:38:06;0.20;;;0.20;;
44272;SDS011;29964;17.182;-96.766;2023-02-03T16:40:51;0.00;;;0.00;;
44272;SDS011;29964;17.182;-96.766;2023-02-03T16:43:36;0.50;;;0.30;;
44272;SDS011;29964;17.182;-96.766;2023-02-03T16:46:21;0.95;;;0.43;;
44272;SDS011;29964;17.182;-96.766;2023-02-03T16:49:06;0.00;;;0.00;;
44272;SDS011;29964;17.182;-96.766;2023-02-03T16:51:52;0.88;;;0.45;;
44272;SDS011;29964;17.182;-96.766;2023-02-03T16:54:18;0.20;;;0.10;;
44272;SDS011;29964;17.182;-96.766;2023-02-03T16:56:45;2.53;;;0.17;;
44272;SDS011;29964;17.182;-96.766;2023-02-03T16:59:12;1.17;;;0.40;;
44272;SDS011;29964;17.182;-96.766;2023-02-03T17:01:38;0.53;;;0.27;;
44272;SDS011;29964;17.182;-96.766;2023-02-03T17:04:05;5.50;;;0.33;;
44272;SDS011;29964;17.182;-96.766;2023-02-03T17:06:35;0.60;;;0.33;;
44272;SDS011;29964;17.182;-96.766;2023-02-03T17:09:02;0.00;;;0.00;;
44272;SDS011;29964;17.182;-96.766;2023-02-03T17:11:29;0.00;;;0.00;;
44272;SDS011;29964;17.182;-96.766;2023-02-03T17:13:55;0.20;;;0.10;;
44272;SDS011;29964;17.182;-96.766;2023-02-03T17:16:23;2.17;;;0.60;;
44272;SDS011;29964;17.182;-96.766;2023-02-03T17:18:50;0.47;;;0.20;;
44272;SDS011;29964;17.182;-96.766;2023-02-03T17:21:18;0.10;;;0.10;;
44272;SDS011;29964;17.182;-96.766;2023-02-03T17:23:46;0.00;;;0.00;;
44272;SDS011;29964;17.182;-96.766;2023-02-03T17:26:12;4.87;;;0.60;;